Time;durP1;ratioP1;P1;durP2;ratioP2;P2;SDS_P1;SDS_P2;PMS_P1;PMS_P2;Temp;Humidity;BMP_temperature;BMP_pressure;BME280_temperature;BME280_humidity;BME280_pressure;Samples;Min_cycle;Max_cycle;Signal;HPM_P1;HPM_P2
2023/09/20 00:00:32;;;;;;;28.30;5.85;;;17.30;99.90;;;;;;5017445;28;20104;-72
2023/09/20 00:02:58;;;;;;;22.45;5.13;;;17.40;99.90;;;;;;5000711;28;20104;-71
2023/09/20 00:05:24;;;;;;;21.53;5.97;;;17.60;99.90;;;;;;5016393;28;20041;-71
2023/09/20 00:07:56;;;;;;;21.38;5.55;;;17.30;99.90;;;;;;5016234;28;20057;-74
2023/09/20 00:10:26;;;;;;;22.80;6.47;;;17.50;99.90;;;;;;4985205;28;20046;-71
2023/09/20 00:12:52;;;;;;;31.38;6.40;;;17.70;99.90;;;;;;5017216;28;20047;-70
2023/09/20 00:15:18;;;;;;;24.38;5.35;;;17.20;99.90;;;;;;5017388;28;20060;-70
2023/09/20 00:17:44;;;;;;;30.07;6.57;;;17.30;99.90;;;;;;5018052;28;20058;-74
2023/09/20 00:20:13;;;;;;;28.57;5.73;;;17.70;99.90;;;;;;5015967;28;20078;-69
2023/09/20 00:22:44;;;;;;;24.30;6.07;;;17.30;99.90;;;;;;5017061;28;20046;-69
2023/09/20 00:25:14;;;;;;;23.65;6.13;;;17.60;99.90;;;;;;5017022;28;20441;-69
2023/09/20 00:27:42;;;;;;;22.75;5.28;;;17.50;99.90;;;;;;5015682;28;20046;-70
2023/09/20 00:30:10;;;;;;;36.63;6.22;;;17.30;99.90;;;;;;5015797;28;20437;-69
2023/09/20 00:32:43;;;;;;;33.65;5.97;;;17.20;99.90;;;;;;5016997;28;20379;-70
2023/09/20 00:35:10;;;;;;;28.25;5.25;;;17.30;99.90;;;;;;5017662;28;20096;-69
2023/09/20 00:37:41;;;;;;;33.08;5.10;;;17.20;99.90;;;;;;5016896;28;20081;-69
2023/09/20 00:40:21;;;;;;;32.22;6.18;;;17.30;99.90;;;;;;5016186;28;20053;-70
2023/09/20 00:42:49;;;;;;;29.05;5.72;;;17.30;99.90;;;;;;5016913;28;20046;-70
2023/09/20 00:45:16;;;;;;;25.40;5.90;;;17.30;99.90;;;;;;4999358;28;20127;-70
2023/09/20 00:47:44;;;;;;;26.92;5.22;;;17.40;99.90;;;;;;5015337;28;20045;-70
2023/09/20 00:50:11;;;;;;;30.95;6.05;;;17.30;99.90;;;;;;5016852;28;20054;-70
2023/09/20 00:52:40;;;;;;;30.30;5.15;;;17.30;99.90;;;;;;5015507;28;20107;-70
2023/09/20 00:55:15;;;;;;;25.67;4.72;;;17.30;99.90;;;;;;5014196;28;20115;-70
2023/09/20 00:57:42;;;;;;;25.67;5.72;;;17.30;99.90;;;;;;5016937;28;20050;-69
2023/09/20 01:00:20;;;;;;;30.17;6.35;;;17.30;99.90;;;;;;5016310;28;20136;-69
2023/09/20 01:02:47;;;;;;;24.15;5.68;;;17.30;99.90;;;;;;5016623;28;20397;-69
2023/09/20 01:05:14;;;;;;;27.70;5.70;;;17.40;99.90;;;;;;5016175;28;20042;-69
2023/09/20 01:07:42;;;;;;;30.73;6.25;;;17.40;99.90;;;;;;5015346;28;20176;-70
2023/09/20 01:10:09;;;;;;;20.63;5.43;;;17.40;99.90;;;;;;5015059;28;20056;-71
2023/09/20 01:12:36;;;;;;;20.95;4.88;;;17.40;99.90;;;;;;5016409;28;20050;-69
2023/09/20 01:15:03;;;;;;;29.67;6.05;;;17.40;99.90;;;;;;5015966;28;20057;-69
2023/09/20 01:17:29;;;;;;;23.83;5.45;;;17.40;99.90;;;;;;5014989;28;20053;-70
2023/09/20 01:19:54;;;;;;;33.35;5.10;;;17.40;99.90;;;;;;5017162;28;20375;-70
2023/09/20 01:22:20;;;;;;;28.17;5.90;;;17.40;99.90;;;;;;5014864;28;20080;-69
2023/09/20 01:24:47;;;;;;;32.17;6.05;;;17.40;99.90;;;;;;5016551;28;20049;-69
2023/09/20 01:27:13;;;;;;;26.55;5.60;;;17.40;99.90;;;;;;5016115;28;20096;-69
2023/09/20 01:29:39;;;;;;;32.70;7.13;;;17.40;99.90;;;;;;5016017;28;20385;-68
2023/09/20 01:32:05;;;;;;;28.03;6.77;;;17.40;99.90;;;;;;5014746;28;20046;-69
2023/09/20 01:34:31;;;;;;;30.57;6.30;;;17.40;99.90;;;;;;5015342;28;20050;-70
2023/09/20 01:36:58;;;;;;;23.75;5.95;;;17.40;99.90;;;;;;5016182;28;20046;-69
2023/09/20 01:39:24;;;;;;;25.60;5.43;;;17.40;99.90;;;;;;5014558;28;20081;-74
2023/09/20 01:41:50;;;;;;;31.67;6.00;;;17.50;99.90;;;;;;5014414;28;20398;-70
2023/09/20 01:44:16;;;;;;;30.93;5.97;;;17.50;99.90;;;;;;5015081;28;20054;-69
2023/09/20 01:46:42;;;;;;;30.53;5.70;;;17.40;99.90;;;;;;5015631;28;20054;-71
2023/09/20 01:49:08;;;;;;;25.10;5.70;;;17.40;99.90;;;;;;5014411;28;20054;-70
2023/09/20 01:51:34;;;;;;;22.17;5.33;;;17.40;99.90;;;;;;5015341;28;20052;-70
2023/09/20 01:53:59;;;;;;;17.80;4.40;;;17.40;99.90;;;;;;5015286;28;20284;-70
2023/09/20 01:56:26;;;;;;;22.43;5.30;;;17.40;99.90;;;;;;5013879;28;20508;-70
2023/09/20 01:58:51;;;;;;;27.58;4.72;;;17.40;99.90;;;;;;5015148;28;20038;-70
2023/09/20 02:01:17;;;;;;;22.05;5.15;;;17.40;99.90;;;;;;5014722;28;20049;-70
2023/09/20 02:03:43;;;;;;;25.65;5.55;;;17.40;99.90;;;;;;5015111;28;20048;-69
2023/09/20 02:06:09;;;;;;;23.67;5.37;;;17.60;99.90;;;;;;4997978;28;20494;-68
2023/09/20 02:08:35;;;;;;;18.27;4.60;;;17.10;99.90;;;;;;4997249;28;20137;-69
2023/09/20 02:11:03;;;;;;;24.65;4.95;;;18.30;99.90;;;;;;4997690;28;20145;-69
2023/09/20 02:13:28;;;;;;;23.63;4.97;;;17.50;99.90;;;;;;4997525;28;20096;-73
2023/09/20 02:15:55;;;;;;;21.30;5.17;;;17.90;99.90;;;;;;5014557;28;20057;-69
2023/09/20 02:18:22;;;;;;;21.48;5.30;;;17.50;99.90;;;;;;5014768;28;20049;-68
2023/09/20 02:20:48;;;;;;;25.65;4.80;;;17.60;99.90;;;;;;5013751;28;20050;-69
2023/09/20 02:23:15;;;;;;;20.60;4.80;;;17.60;99.90;;;;;;5013550;28;20046;-71
2023/09/20 02:25:41;;;;;;;26.63;4.70;;;17.40;99.90;;;;;;4997823;28;20112;-69
2023/09/20 02:28:07;;;;;;;23.27;5.10;;;17.70;99.90;;;;;;5014519;28;20183;-69
2023/09/20 02:30:36;;;;;;;27.88;5.13;;;17.50;99.90;;;;;;5013940;28;20052;-70
2023/09/20 02:33:05;;;;;;;22.10;4.47;;;17.50;99.90;;;;;;5014542;28;20484;-69
2023/09/20 02:35:32;;;;;;;26.98;5.57;;;17.20;99.90;;;;;;5014695;28;20517;-73
2023/09/20 02:37:59;;;;;;;21.27;5.00;;;16.90;99.90;;;;;;5014451;28;20041;-69
2023/09/20 02:40:26;;;;;;;34.58;5.68;;;17.40;99.90;;;;;;5014477;28;20089;-69
2023/09/20 02:42:59;;;;;;;27.60;5.03;;;17.50;99.90;;;;;;5014373;28;20050;-70
2023/09/20 02:45:25;;;;;;;22.48;5.35;;;17.50;99.90;;;;;;5014425;28;20056;-69
2023/09/20 02:47:52;;;;;;;25.33;5.43;;;17.60;99.90;;;;;;5014232;28;20118;-69
2023/09/20 02:50:22;;;;;;;26.98;5.82;;;17.50;99.90;;;;;;5014281;28;20061;-70
2023/09/20 02:52:48;;;;;;;26.10;5.38;;;17.30;99.90;;;;;;5013538;28;20126;-68
2023/09/20 02:55:17;;;;;;;21.45;5.32;;;17.50;99.90;;;;;;5014358;28;20103;-69
2023/09/20 02:57:44;;;;;;;24.40;5.65;;;17.90;99.90;;;;;;5012961;28;20048;-68
2023/09/20 03:00:15;;;;;;;27.67;5.82;;;17.60;99.90;;;;;;5014178;28;20421;-69
2023/09/20 03:02:52;;;;;;;28.70;5.93;;;17.40;99.90;;;;;;5013736;28;20458;-69
2023/09/20 03:05:23;;;;;;;27.17;5.75;;;17.70;99.90;;;;;;5012756;28;20100;-71
2023/09/20 03:07:50;;;;;;;25.55;5.60;;;17.60;99.90;;;;;;5013933;28;20041;-70
2023/09/20 03:10:19;;;;;;;29.58;6.80;;;17.70;99.90;;;;;;5013950;28;20060;-71
2023/09/20 03:12:46;;;;;;;20.17;4.95;;;17.60;99.90;;;;;;5013831;28;20050;-71
2023/09/20 03:15:18;;;;;;;28.17;6.15;;;17.40;99.90;;;;;;5013669;28;20120;-70
2023/09/20 03:17:48;;;;;;;25.98;4.95;;;17.50;99.90;;;;;;5013261;28;20154;-69
2023/09/20 03:20:24;;;;;;;26.17;6.00;;;17.40;99.90;;;;;;5013243;28;20116;-70
2023/09/20 03:22:54;;;;;;;21.40;5.27;;;17.40;99.90;;;;;;5014314;28;20527;-70
2023/09/20 03:25:21;;;;;;;36.25;5.65;;;17.40;99.90;;;;;;5014494;28;20108;-70
2023/09/20 03:27:48;;;;;;;;;;;17.40;99.90;;;;;;5014811;28;20137;-69
2023/09/20 03:30:14;;;;;;;25.58;5.20;;;17.30;99.90;;;;;;5013755;28;19968;-69
2023/09/20 03:32:42;;;;;;;20.73;5.57;;;17.10;99.90;;;;;;5013622;28;20053;-70
2023/09/20 03:35:10;;;;;;;23.48;5.80;;;17.40;99.90;;;;;;4980518;28;20133;-69
2023/09/20 03:37:39;;;;;;;29.15;6.00;;;17.10;99.90;;;;;;5013593;28;20057;-69
2023/09/20 03:40:10;;;;;;;28.08;5.72;;;17.10;99.90;;;;;;5013536;28;20111;-70
2023/09/20 03:42:46;;;;;;;22.85;5.30;;;17.20;99.90;;;;;;4997031;28;20111;-71
2023/09/20 03:45:15;;;;;;;26.77;5.82;;;17.00;99.90;;;;;;5012969;28;20057;-69
2023/09/20 03:47:42;;;;;;;26.30;6.13;;;16.80;99.90;;;;;;5013649;28;20069;-75
2023/09/20 03:50:12;;;;;;;33.28;5.57;;;16.70;99.90;;;;;;5012380;28;20196;-69
2023/09/20 03:52:38;;;;;;;19.65;5.35;;;16.70;99.90;;;;;;5012380;28;20054;-71
2023/09/20 03:55:05;;;;;;;23.67;5.63;;;16.70;99.90;;;;;;5012423;28;20124;-71
2023/09/20 03:57:32;;;;;;;;;;;16.70;99.90;;;;;;5013613;28;20058;-69
2023/09/20 03:59:57;;;;;;;28.88;5.60;;;16.20;99.90;;;;;;4996264;28;19968;-69
2023/09/20 04:02:24;;;;;;;19.07;5.50;;;16.50;99.90;;;;;;5013476;28;20089;-69
2023/09/20 04:04:51;;;;;;;23.02;5.95;;;16.30;99.90;;;;;;5012005;28;20057;-70
2023/09/20 04:07:18;;;;;;;25.55;5.57;;;16.30;99.90;;;;;;5013212;28;20096;-68
2023/09/20 04:09:47;;;;;;;33.13;6.10;;;16.00;99.90;;;;;;4995868;28;20568;-73
2023/09/20 04:12:13;;;;;;;27.85;5.60;;;16.40;99.90;;;;;;4995421;28;20133;-72
2023/09/20 04:14:39;;;;;;;38.60;5.78;;;16.40;99.90;;;;;;5013760;28;20133;-69
2023/09/20 04:17:05;;;;;;;23.13;5.63;;;16.00;99.90;;;;;;5011591;28;20109;-70
2023/09/20 04:19:31;;;;;;;27.38;6.25;;;16.20;99.90;;;;;;5011951;28;20048;-69
2023/09/20 04:21:57;;;;;;;29.30;5.57;;;16.10;99.90;;;;;;5011949;28;20038;-69
2023/09/20 04:24:23;;;;;;;20.17;5.75;;;16.20;99.90;;;;;;5013162;28;20442;-69
2023/09/20 04:26:49;;;;;;;19.80;5.07;;;16.30;99.90;;;;;;5011916;28;20474;-69
2023/09/20 04:29:15;;;;;;;20.75;5.40;;;16.10;99.90;;;;;;5014071;28;20137;-70
2023/09/20 04:31:43;;;;;;;25.23;5.60;;;15.90;99.90;;;;;;5017643;28;20051;-70
2023/09/20 04:34:09;;;;;;;24.23;5.00;;;15.80;99.90;;;;;;5017145;28;20046;-69
2023/09/20 04:36:35;;;;;;;33.00;6.00;;;15.70;99.90;;;;;;5016985;28;20054;-69
2023/09/20 04:39:01;;;;;;;28.73;6.40;;;15.60;99.90;;;;;;5015673;28;20363;-69
2023/09/20 04:41:27;;;;;;;21.25;5.38;;;15.60;99.90;;;;;;5016571;28;20128;-69
2023/09/20 04:43:52;;;;;;;23.08;5.85;;;15.80;99.90;;;;;;5016821;28;20112;-70
2023/09/20 04:46:18;;;;;;;26.95;5.45;;;15.40;99.90;;;;;;5015795;28;20089;-70
2023/09/20 04:48:44;;;;;;;25.52;4.82;;;15.50;99.90;;;;;;5016474;28;20042;-69
2023/09/20 04:51:10;;;;;;;21.90;5.25;;;15.50;99.90;;;;;;5016134;28;20064;-69
2023/09/20 04:53:35;;;;;;;23.33;4.90;;;15.50;99.90;;;;;;5016722;28;20128;-70
2023/09/20 04:56:06;;;;;;;19.70;4.65;;;15.30;99.90;;;;;;4998692;28;20042;-70
2023/09/20 04:58:32;;;;;;;21.38;5.10;;;15.40;99.90;;;;;;5016688;28;20121;-68
2023/09/20 05:00:58;;;;;;;27.35;5.43;;;15.60;99.90;;;;;;5016156;28;20549;-70
2023/09/20 05:03:24;;;;;;;21.15;5.65;;;15.50;99.90;;;;;;5016704;28;20041;-69
2023/09/20 05:05:51;;;;;;;22.90;5.60;;;15.40;99.90;;;;;;5015514;28;20042;-68
2023/09/20 05:08:18;;;;;;;21.45;5.78;;;15.40;99.90;;;;;;5016310;28;20128;-70
2023/09/20 05:10:44;;;;;;;23.90;5.32;;;15.50;99.90;;;;;;5015094;28;20053;-70
2023/09/20 05:13:10;;;;;;;23.50;4.88;;;15.60;99.90;;;;;;5014928;28;20050;-68
2023/09/20 05:15:39;;;;;;;20.63;4.93;;;15.40;99.90;;;;;;5015595;28;20123;-70
2023/09/20 05:18:06;;;;;;;27.42;5.07;;;15.60;99.90;;;;;;5016437;28;20112;-70
2023/09/20 05:20:32;;;;;;;;;;;15.60;99.90;;;;;;5016298;28;20046;-69
2023/09/20 05:22:59;;;;;;;23.95;5.22;;;15.40;99.90;;;;;;5016339;28;19921;-69
2023/09/20 05:25:28;;;;;;;20.58;4.32;;;15.40;99.90;;;;;;5015221;28;20492;-70
2023/09/20 05:27:54;;;;;;;22.52;5.15;;;15.50;99.90;;;;;;5015641;28;20140;-69
2023/09/20 05:30:21;;;;;;;25.83;5.38;;;15.50;99.90;;;;;;5015735;28;20046;-70
2023/09/20 05:32:51;;;;;;;17.58;4.43;;;15.70;99.90;;;;;;5015684;28;20060;-70
2023/09/20 05:35:17;;;;;;;18.90;5.07;;;15.50;99.90;;;;;;5015592;28;20053;-69
2023/09/20 05:37:43;;;;;;;17.55;4.07;;;15.50;99.90;;;;;;5014184;28;20046;-70
2023/09/20 05:40:18;;;;;;;23.85;4.53;;;15.50;99.90;;;;;;5014518;28;20112;-68
2023/09/20 05:42:50;;;;;;;24.88;5.35;;;15.80;99.90;;;;;;5015202;28;20089;-69
2023/09/20 05:45:16;;;;;;;31.83;5.80;;;15.80;99.90;;;;;;5015131;28;20054;-69
2023/09/20 05:47:43;;;;;;;24.20;6.38;;;15.60;99.90;;;;;;5015613;28;20048;-69
2023/09/20 05:50:23;;;;;;;;;;;15.50;99.90;;;;;;5015733;28;20402;-70
2023/09/20 05:52:52;;;;;;;22.15;5.00;;;15.80;99.90;;;;;;5015459;28;19968;-69
2023/09/20 05:55:18;;;;;;;16.10;4.43;;;15.70;99.90;;;;;;5014124;28;20042;-69
2023/09/20 05:57:45;;;;;;;20.67;4.55;;;15.70;99.90;;;;;;5015500;28;20364;-69
2023/09/20 06:00:22;;;;;;;23.77;5.30;;;15.90;99.90;;;;;;5013892;28;20048;-71
2023/09/20 06:02:49;;;;;;;23.83;4.32;;;16.00;99.90;;;;;;5013883;28;20050;-69
2023/09/20 06:05:24;;;;;;;26.48;4.38;;;15.70;99.90;;;;;;5013978;28;20133;-70
2023/09/20 06:07:51;;;;;;;13.43;4.25;;;16.00;99.90;;;;;;5013865;28;20050;-70
2023/09/20 06:10:18;;;;;;;;;;;16.00;99.90;;;;;;5014101;28;20053;-69
2023/09/20 06:12:45;;;;;;;22.65;4.28;;;16.20;99.90;;;;;;5013962;28;20278;-69
2023/09/20 06:15:15;;;;;;;30.13;5.43;;;15.90;99.90;;;;;;5014427;28;20052;-69
2023/09/20 06:17:44;;;;;;;24.02;4.57;;;16.00;99.90;;;;;;5015443;28;20057;-69
2023/09/20 06:20:12;;;;;;;15.68;4.40;;;16.20;99.90;;;;;;5014702;28;20045;-69
2023/09/20 06:22:40;;;;;;;25.30;4.75;;;16.20;99.90;;;;;;5014729;28;20117;-69
2023/09/20 06:25:06;;;;;;;19.48;4.28;;;16.30;99.90;;;;;;5013372;28;20100;-70
2023/09/20 06:27:33;;;;;;;21.38;4.90;;;16.60;99.90;;;;;;5013602;28;20125;-69
2023/09/20 06:30:12;;;;;;;22.83;4.80;;;16.40;99.90;;;;;;5014356;28;20050;-70
2023/09/20 06:32:38;;;;;;;18.85;4.68;;;16.30;99.90;;;;;;5013844;28;20054;-69
2023/09/20 06:35:05;;;;;;;23.20;4.65;;;16.50;99.90;;;;;;5014868;28;20046;-73
2023/09/20 06:37:31;;;;;;;22.65;4.72;;;16.90;99.90;;;;;;5014721;28;20054;-69
2023/09/20 06:39:57;;;;;;;25.33;5.28;;;16.50;99.90;;;;;;5014469;28;20368;-69
2023/09/20 06:42:30;;;;;;;22.83;5.40;;;16.70;99.90;;;;;;5013154;28;20116;-70
2023/09/20 06:44:56;;;;;;;23.27;4.85;;;16.90;99.90;;;;;;5013357;28;20447;-70
2023/09/20 06:47:22;;;;;;;19.65;4.80;;;16.90;99.90;;;;;;5012975;28;20125;-70
2023/09/20 06:49:48;;;;;;;20.15;4.97;;;17.00;99.90;;;;;;5014282;28;20046;-73
2023/09/20 06:52:14;;;;;;;23.55;4.55;;;17.00;99.90;;;;;;5012430;28;20053;-70
2023/09/20 06:54:40;;;;;;;28.55;5.60;;;17.30;99.90;;;;;;5012667;28;20049;-71
2023/09/20 06:57:06;;;;;;;26.17;5.43;;;16.90;99.90;;;;;;5012946;28;20154;-70
2023/09/20 06:59:33;;;;;;;24.53;4.90;;;17.00;99.90;;;;;;5012737;28;20462;-70
2023/09/20 07:02:00;;;;;;;21.95;5.15;;;16.90;99.90;;;;;;5013735;28;20509;-70
2023/09/20 07:04:25;;;;;;;;;;;17.20;99.90;;;;;;5014369;28;20054;-70
2023/09/20 07:06:57;;;;;;;23.63;4.70;;;17.00;99.90;;;;;;5012775;28;19922;-69
2023/09/20 07:09:23;;;;;;;19.45;5.18;;;17.10;99.90;;;;;;5013603;28;20490;-69
2023/09/20 07:11:53;;;;;;;35.60;5.32;;;17.40;99.90;;;;;;5013938;28;20132;-70
2023/09/20 07:14:23;;;;;;;27.88;5.53;;;17.20;99.90;;;;;;5013841;28;20085;-69
2023/09/20 07:16:52;;;;;;;19.35;5.10;;;17.00;99.90;;;;;;5014130;28;20058;-69
2023/09/20 07:19:20;;;;;;;26.77;6.15;;;17.00;99.90;;;;;;5012546;28;20050;-69
2023/09/20 07:21:45;;;;;;;22.80;5.80;;;17.10;99.90;;;;;;5012622;28;20060;-70
2023/09/20 07:24:12;;;;;;;22.92;4.90;;;17.20;99.90;;;;;;5014219;28;20397;-70
2023/09/20 07:26:44;;;;;;;24.27;5.85;;;17.60;99.90;;;;;;5013888;28;20128;-70
2023/09/20 07:29:14;;;;;;;21.63;5.38;;;17.60;99.90;;;;;;5013197;28;20048;-70
2023/09/20 07:31:41;;;;;;;26.40;6.40;;;17.80;99.90;;;;;;5012556;28;20049;-70
2023/09/20 07:34:07;;;;;;;25.17;5.55;;;17.90;99.90;;;;;;5012462;28;20152;-70
2023/09/20 07:36:36;;;;;;;19.03;5.23;;;17.90;99.90;;;;;;5013868;28;20104;-71
2023/09/20 07:39:08;;;;;;;30.17;6.35;;;18.20;99.90;;;;;;5013970;28;20509;-70
2023/09/20 07:41:34;;;;;;;26.00;5.43;;;18.40;99.90;;;;;;5014440;28;20072;-69
2023/09/20 07:44:00;;;;;;;29.27;5.40;;;18.50;99.90;;;;;;5012068;28;20049;-68
2023/09/20 07:46:26;;;;;;;22.30;5.80;;;18.80;99.90;;;;;;5012259;28;20137;-69
2023/09/20 07:48:52;;;;;;;22.33;5.13;;;19.00;99.90;;;;;;5013565;28;20125;-71
2023/09/20 07:51:28;;;;;;;26.40;5.67;;;19.20;99.90;;;;;;5013376;28;20045;-71
2023/09/20 07:53:54;;;;;;;21.45;5.53;;;19.30;99.90;;;;;;5012542;28;20137;-69
2023/09/20 07:56:20;;;;;;;24.00;5.40;;;19.20;99.90;;;;;;5013388;28;20129;-70
2023/09/20 07:58:47;;;;;;;19.92;5.45;;;19.20;99.90;;;;;;5013406;28;20042;-70
2023/09/20 08:01:24;;;;;;;25.08;5.35;;;19.20;99.90;;;;;;5013496;28;20038;-71
2023/09/20 08:03:53;;;;;;;20.70;6.03;;;19.10;99.90;;;;;;5013104;28;20045;-70
2023/09/20 08:06:24;;;;;;;22.15;5.80;;;19.10;99.90;;;;;;5017833;28;20455;-69
2023/09/20 08:08:50;;;;;;;25.50;5.03;;;19.10;99.90;;;;;;5015780;28;20049;-69
2023/09/20 08:11:16;;;;;;;30.00;5.90;;;19.20;99.90;;;;;;5018147;28;20042;-73
2023/09/20 08:13:42;;;;;;;22.77;5.70;;;19.30;99.90;;;;;;5016094;28;20085;-70
2023/09/20 08:16:10;;;;;;;23.97;6.23;;;19.30;99.90;;;;;;5017714;28;20093;-70
2023/09/20 08:21:29;;;;;;;21.02;6.13;;;19.30;99.90;;;;;;5016835;28;20501;-69
2023/09/20 08:59:55;;;;;;;25.00;6.25;;;19.10;99.90;;;;;;5016815;28;20053;-69
2023/09/20 09:02:22;;;;;;;18.40;4.95;;;18.90;99.90;;;;;;5016393;28;20054;-69
2023/09/20 09:04:54;;;;;;;24.77;6.10;;;19.00;99.90;;;;;;5016878;28;20120;-69
2023/09/20 09:07:22;;;;;;;21.15;5.78;;;19.00;99.90;;;;;;4999500;28;20052;-69
2023/09/20 09:09:49;;;;;;;22.08;5.80;;;19.00;99.90;;;;;;5017337;28;20069;-70
2023/09/20 09:12:15;;;;;;;20.85;5.85;;;19.20;99.90;;;;;;5016223;28;20049;-69
2023/09/20 09:14:42;;;;;;;19.98;5.88;;;19.20;99.90;;;;;;5015667;28;20065;-69
2023/09/20 09:17:09;;;;;;;18.10;5.10;;;19.20;99.90;;;;;;5015085;28;20136;-68
2023/09/20 09:19:38;;;;;;;17.92;5.50;;;19.30;99.90;;;;;;5016562;28;20086;-69
2023/09/20 09:22:06;;;;;;;29.15;5.95;;;19.60;99.90;;;;;;5016078;28;20065;-69
2023/09/20 09:24:48;;;;;;;23.30;5.63;;;19.30;99.90;;;;;;5015957;28;20042;-70
2023/09/20 09:27:15;;;;;;;14.15;5.20;;;19.30;99.90;;;;;;5015934;28;20121;-72
2023/09/20 09:29:46;;;;;;;18.88;5.60;;;19.70;99.90;;;;;;5015825;28;20086;-70
2023/09/20 09:32:13;;;;;;;26.02;5.50;;;19.40;99.90;;;;;;5015892;28;20050;-71
2023/09/20 09:34:41;;;;;;;15.70;5.10;;;19.30;99.90;;;;;;5015822;28;20052;-70
2023/09/20 09:37:07;;;;;;;19.35;5.45;;;19.70;99.90;;;;;;5016576;28;20382;-68
2023/09/20 09:39:33;;;;;;;24.53;5.57;;;19.60;99.90;;;;;;5016252;28;20100;-68
2023/09/20 09:42:00;;;;;;;18.88;5.72;;;19.70;99.90;;;;;;5015654;28;20108;-70
2023/09/20 09:44:26;;;;;;;17.23;5.47;;;19.50;99.90;;;;;;5015302;28;20494;-70
2023/09/20 09:46:54;;;;;;;15.03;4.53;;;19.50;99.90;;;;;;5015974;28;20104;-70
2023/09/20 09:49:20;;;;;;;20.25;5.55;;;19.50;99.90;;;;;;5014426;28;20092;-70
2023/09/20 09:51:54;;;;;;;22.30;4.95;;;19.50;99.90;;;;;;5015415;28;20104;-70
2023/09/20 09:54:21;;;;;;;18.45;6.10;;;19.40;99.90;;;;;;5015466;28;20049;-70
2023/09/20 09:56:48;;;;;;;23.65;5.68;;;19.40;99.90;;;;;;5015387;28;20050;-70
2023/09/20 09:59:14;;;;;;;19.50;5.63;;;19.40;99.90;;;;;;5015444;28;20112;-69
2023/09/20 10:01:41;;;;;;;18.00;5.60;;;19.40;99.90;;;;;;5015770;28;20107;-72
2023/09/20 10:04:10;;;;;;;15.57;5.03;;;19.50;99.90;;;;;;5015165;28;20045;-70
2023/09/20 10:07:15;;;;;;;12.25;4.22;;;19.60;99.90;;;;;;5013853;28;20099;-73
2023/09/20 10:09:42;;;;;;;15.43;4.85;;;19.80;99.90;;;;;;4995346;28;20058;-70
2023/09/20 10:12:10;;;;;;;15.85;4.50;;;19.80;99.90;;;;;;5015089;28;20107;-71
2023/09/20 10:14:37;;;;;;;16.52;5.00;;;19.90;99.90;;;;;;5013728;28;20049;-70
2023/09/20 10:17:06;;;;;;;18.15;4.85;;;19.90;99.90;;;;;;5014591;28;20105;-70
2023/09/20 10:19:33;;;;;;;16.75;5.28;;;19.90;99.90;;;;;;5014779;28;20488;-71
2023/09/20 10:22:08;;;;;;;20.17;5.38;;;20.50;99.90;;;;;;5014553;28;20551;-71
2023/09/20 10:24:58;;;;;;;14.43;4.97;;;19.20;99.90;;;;;;5014365;28;20045;-73
2023/09/20 10:27:35;;;;;;;18.15;5.00;;;20.10;99.90;;;;;;5015339;28;20038;-69
2023/09/20 10:30:09;;;;;;;17.58;5.13;;;20.10;99.90;;;;;;5015568;28;20049;-69
2023/09/20 10:32:56;;;;;;;20.30;5.75;;;20.80;99.90;;;;;;5014656;28;20050;-71
2023/09/20 10:35:33;;;;;;;17.67;4.82;;;19.80;99.90;;;;;;5014475;28;20208;-69
2023/09/20 10:38:07;;;;;;;;;;;20.00;99.90;;;;;;5015529;28;20060;-70
2023/09/20 10:40:45;;;;;;;15.15;4.50;;;20.00;99.90;;;;;;5014513;28;19997;-69
2023/09/20 10:43:11;;;;;;;17.75;4.47;;;19.80;99.90;;;;;;5013227;28;20053;-69
2023/09/20 10:45:39;;;;;;;15.18;5.05;;;19.90;99.90;;;;;;5014715;28;20111;-75
2023/09/20 10:48:13;;;;;;;15.38;4.90;;;19.90;99.90;;;;;;5013293;28;20050;-68
2023/09/20 10:50:47;;;;;;;20.67;4.50;;;20.00;99.90;;;;;;5014305;28;20044;-70
2023/09/20 10:53:19;;;;;;;17.30;4.57;;;20.00;99.90;;;;;;5014846;28;20057;-70
2023/09/20 10:55:45;;;;;;;16.13;4.68;;;20.00;99.90;;;;;;5014223;28;20115;-69
2023/09/20 10:58:14;;;;;;;15.13;4.93;;;20.00;99.90;;;;;;5013076;28;20058;-68
2023/09/20 11:00:40;;;;;;;17.05;4.22;;;20.00;99.90;;;;;;5014587;28;20121;-71
2023/09/20 11:03:07;;;;;;;17.17;4.37;;;20.10;99.90;;;;;;5014428;28;20050;-69
2023/09/20 11:05:34;;;;;;;;;;;20.30;99.90;;;;;;5014130;28;20050;-70
2023/09/20 11:08:07;;;;;;;;;;;20.40;99.90;;;;;;5014456;28;19929;-69
2023/09/20 11:10:36;;;;;;;19.48;4.30;;;20.50;99.90;;;;;;5014676;28;19928;-71
2023/09/20 11:13:08;;;;;;;12.65;3.92;;;20.70;99.90;;;;;;5013994;28;20038;-71
2023/09/20 11:15:41;;;;;;;13.60;4.38;;;20.80;99.90;;;;;;4997313;28;20064;-73
2023/09/20 11:18:08;;;;;;;15.55;4.32;;;20.90;99.90;;;;;;5012610;28;20058;-68
2023/09/20 11:20:34;;;;;;;14.77;4.10;;;21.00;99.90;;;;;;5013745;28;20049;-70
2023/09/20 11:23:03;;;;;;;17.40;5.15;;;21.10;99.90;;;;;;5014352;28;20050;-69
2023/09/20 11:25:30;;;;;;;12.38;4.60;;;21.20;99.90;;;;;;5013703;28;20080;-70
2023/09/20 11:27:56;;;;;;;14.27;4.95;;;21.20;99.90;;;;;;5013708;28;20053;-70
2023/09/20 11:30:29;;;;;;;;;;;21.30;99.90;;;;;;5014189;28;20045;-71
2023/09/20 11:32:55;;;;;;;17.38;4.90;;;21.40;99.90;;;;;;5028587;28;19929;-70
2023/09/20 11:35:36;;;;;;;17.15;4.80;;;21.60;99.90;;;;;;5012495;28;20053;-70
2023/09/20 11:38:07;;;;;;;17.15;4.78;;;21.50;99.90;;;;;;5012518;28;20049;-71
2023/09/20 11:40:36;;;;;;;18.63;5.10;;;21.60;99.90;;;;;;5013234;28;20049;-70
2023/09/20 11:43:09;;;;;;;20.05;5.85;;;21.50;99.90;;;;;;5012575;28;20052;-69
2023/09/20 11:45:41;;;;;;;19.05;5.18;;;21.30;99.90;;;;;;5013997;28;20056;-70
2023/09/20 11:48:13;;;;;;;21.20;5.10;;;21.30;99.90;;;;;;5013836;28;20501;-70
2023/09/20 11:50:44;;;;;;;16.63;5.47;;;21.20;99.90;;;;;;5013457;28;20494;-70
2023/09/20 11:53:18;;;;;;;16.98;5.90;;;21.30;99.90;;;;;;5013703;28;20049;-68
2023/09/20 11:55:45;;;;;;;26.70;6.40;;;21.50;99.90;;;;;;5012762;28;20061;-70
2023/09/20 11:58:11;;;;;;;17.48;5.75;;;21.60;99.90;;;;;;5012270;28;20050;-70
2023/09/20 12:00:40;;;;;;;16.75;5.35;;;21.70;99.90;;;;;;5013541;28;20133;-70
2023/09/20 12:03:05;;;;;;;25.83;5.97;;;21.90;99.90;;;;;;5013457;28;20100;-68
2023/09/20 12:05:33;;;;;;;20.17;5.90;;;22.00;99.90;;;;;;5012512;28;20046;-69
2023/09/20 12:08:00;;;;;;;23.98;6.03;;;22.10;99.90;;;;;;5013222;28;20104;-69
2023/09/20 12:10:27;;;;;;;18.45;6.63;;;22.00;99.90;;;;;;5013979;28;20085;-69
2023/09/20 12:12:53;;;;;;;;;;;22.20;99.90;;;;;;5014481;28;20054;-70
2023/09/20 12:15:22;;;;;;;20.88;5.78;;;22.10;99.90;;;;;;5013468;28;20247;-71
2023/09/20 12:17:50;;;;;;;19.27;6.25;;;22.30;99.90;;;;;;5013329;28;20065;-67
2023/09/20 12:20:17;;;;;;;30.52;6.95;;;22.30;99.90;;;;;;5013027;28;20086;-69
2023/09/20 12:22:43;;;;;;;19.27;6.10;;;22.30;99.90;;;;;;5013298;28;20049;-68
2023/09/20 12:25:14;;;;;;;18.13;6.03;;;22.30;99.90;;;;;;5013279;28;20050;-70
2023/09/20 12:27:42;;;;;;;21.75;6.40;;;22.30;99.90;;;;;;5013251;28;20046;-69
2023/09/20 12:30:10;;;;;;;19.98;6.03;;;22.40;99.90;;;;;;5012225;28;20061;-71
2023/09/20 12:32:36;;;;;;;24.60;5.82;;;22.30;99.90;;;;;;5012992;28;20046;-68
2023/09/20 12:35:03;;;;;;;22.10;5.70;;;22.30;99.90;;;;;;5012206;28;20045;-68
2023/09/20 12:37:30;;;;;;;19.65;5.70;;;22.30;99.90;;;;;;5011951;28;20054;-69
2023/09/20 12:39:55;;;;;;;23.35;5.70;;;22.20;99.90;;;;;;5011845;28;20069;-69
2023/09/20 12:42:23;;;;;;;16.37;5.40;;;22.20;99.90;;;;;;5012712;28;20046;-69
2023/09/20 12:44:50;;;;;;;19.17;5.20;;;22.20;99.90;;;;;;5012443;28;20050;-69
2023/09/20 12:47:18;;;;;;;16.17;5.00;;;22.10;99.90;;;;;;5012632;28;20513;-68
2023/09/20 12:49:46;;;;;;;13.75;4.30;;;22.10;99.90;;;;;;5012800;28;20507;-70
2023/09/20 12:52:12;;;;;;;20.77;5.20;;;22.10;99.90;;;;;;5014021;28;20502;-68
2023/09/20 12:54:38;;;;;;;20.43;4.20;;;22.00;99.90;;;;;;5017418;28;20041;-70
2023/09/20 12:57:04;;;;;;;16.20;4.50;;;21.80;99.90;;;;;;5016208;28;20444;-70
2023/09/20 12:59:29;;;;;;;13.77;4.33;;;21.90;99.90;;;;;;5017197;28;20042;-70
2023/09/20 13:01:55;;;;;;;16.37;5.23;;;22.00;99.90;;;;;;5016397;28;20443;-70
2023/09/20 13:04:21;;;;;;;22.02;4.47;;;22.10;99.90;;;;;;5015717;28;20053;-70
2023/09/20 13:06:47;;;;;;;22.23;4.83;;;22.40;99.90;;;;;;5016270;28;20211;-70
2023/09/20 13:09:14;;;;;;;15.30;4.73;;;22.50;99.90;;;;;;5016667;28;20347;-70
2023/09/20 13:11:44;;;;;;;17.92;4.68;;;22.50;99.90;;;;;;5016741;28;20058;-70
2023/09/20 13:14:09;;;;;;;14.63;4.10;;;22.50;99.90;;;;;;5014966;28;20115;-69
2023/09/20 13:16:35;;;;;;;13.90;4.23;;;22.40;99.90;;;;;;5015964;28;20448;-71
2023/09/20 13:19:02;;;;;;;13.87;4.33;;;22.40;99.90;;;;;;5015350;28;20529;-70
2023/09/20 13:21:28;;;;;;;12.32;4.10;;;22.40;99.90;;;;;;4998755;28;20088;-70
2023/09/20 13:23:59;;;;;;;13.63;4.10;;;22.60;99.90;;;;;;5016062;28;20127;-69